Main page
METAR-TAF:

METAR-TAF

Airports :

Les Eplatures Airport

La Chaux-de-Fonds, Switzerland

latitude: 47-05-03N, longitude: 006-47-37E, elevation: 1027 m

Current weather observation

The report was made 37 minutes ago, at 08:20 UTC
Wind 3 kt from variable directions
Temperature 3°C
Humidity 65%
Pressure 1015 hPa
Visibility 10 km or more
no clouds below 1500 m and no cumulonimbus

METAR: LSGC 030820Z VRB03KT CAVOK 03/M03 Q1015

Time: 10:57 (08:57 UTC)

Forecast

The report was made 32 minutes ago, at 08:25 UTC
Forecast valid from 03 at 09 UTC to 03 at 18 UTC
Wind 3 kt from variable directions
Visibility 10 km or more
no clouds below 1500 m and no cumulonimbus
Becoming
from 03 at 10 UTC to 03 at 12 UTC
Visibility 10 km or more
Few clouds at a height of 4000 ft

TAF: LSGC 030825Z 0309/0318 VRB03KT CAVOK BECMG 0310/0312 9999 FEW040

Weather observations and forecasts of more than 4000 airports (METAR and TAF reports).

The available stations are represented by yellow and red dots on the map.

Hover mouse over dot to see the name of the station.

Then click to see weather observations and forecasts.

To change the map : click on the green buttons with a black cross to zoom in, on the green button with a dash to zoom out, or on the green arrows for adjacent maps.


METAR-TAF: